KWDG/WDG METAR and TAF weather

Enter ICAO airport designator
Station Type Date Time Source
KWDG METAR 2019/10/23 08:35 UTC NOAA

KWDG 230835Z AUTO 18004KT 10SM CLR 05/00 A2995 RMK AO2


Station Type Date Time Source
KWDG Decoded METAR 2019/10/23 08:35 UTC NOAA

Enid, Enid Woodring Regional Airport, OK, United States (KWDG) 36-22-45N 097-47-28W
Oct 23, 2019 - 04:35 AM EDT / 2019.10.23 0835 UTC
Wind: from the S (180 degrees) at 5 MPH (4 KT):0
Visibility: 10 mile(s):0
Sky conditions: clear
Temperature: 41 F (5 C)
Dew Point: 32 F (0 C)
Relative Humidity: 70%
Pressure (altimeter): 29.95 in. Hg (1014 hPa)
ob: KWDG 230835Z AUTO 18004KT 10SM CLR 05/00 A2995 RMK AO2
cycle: 8

Station Type Date Time Source
KWDG TAF UTC NOAA

Error!

Example: see airport list